Latest Weather Observations for Darwin Airport

IDD60801

Issued at 9:41 am CST Monday 16 September 2019 (issued every 10 minutes, with the page automatically refreshed every 10 minutes)

About weather observations | Map of weather stations | Latest weather observations for NT | Other Formats
Station Details ID: 014015 Name: DARWIN AIRPORT Lat: -12.42 Lon: 130.89 Height: 30.4 m
Data from the previous 72 hours. | See also: Recent months at Darwin Airport
Date/Time
CST
Temp
°C
App
Temp
°C
Dew
Point
°C
Rel
Hum
%
Delta-T
°C
Wind Press
QNH
hPa
Press
MSL
hPa
Rain since
9am
mm
Dir  Spd
km/h
Gust
km/h
Spd
kts
Gust
kts
16/09:30am 26.4 27.0 17.6 58 5.5 E 11 17 6 9 1016.5 1016.3 0.0
16/09:00am 25.4 26.6 19.0 67 4.1 E 11 19 6 10 1016.6 1016.4 0.0
16/08:30am 24.9 25.3 19.1 70 3.7 E 15 19 8 10 1016.6 1016.4 0.0
16/08:00am 23.8 24.7 19.3 76 2.9 ESE 13 15 7 8 1016.6 1016.4 0.0
16/07:30am 21.9 24.0 18.2 79 2.3 E 4 6 2 3 1016.1 1015.9 0.0
16/07:00am 21.5 23.6 18.0 80 2.2 ESE 4 6 2 3 1016.1 1015.9 0.0
16/06:30am 22.1 23.5 17.7 76 2.7 SE 7 9 4 5 1016.0 1015.8 0.0
16/06:00am 22.1 23.5 17.7 76 2.7 SE 7 9 4 5 1015.8 1015.6 0.0
16/05:30am 22.1 23.5 17.7 76 2.7 SE 7 9 4 5 1015.5 1015.3 0.0
16/05:00am 21.9 23.6 18.0 78 2.4 SE 6 7 3 4 1015.5 1015.3 0.0
16/04:30am 21.9 23.6 18.0 78 2.4 ESE 6 6 3 3 1015.3 1015.1 0.0
16/04:00am 21.9 23.6 18.4 80 2.2 SSE 7 7 4 4 1015.3 1015.1 0.0
16/03:30am 22.2 23.4 19.0 82 2.0 SSE 11 15 6 8 1015.1 1014.9 0.0
16/03:00am 22.3 24.0 19.3 83 1.9 SSE 9 13 5 7 1015.2 1015.0 0.0
16/02:30am 22.8 25.1 19.5 81 2.1 SSE 6 9 3 5 1015.2 1015.0 0.0
16/02:00am 22.3 24.5 19.1 82 2.0 S 6 6 3 3 1014.9 1014.7 0.0
16/01:30am 23.5 25.7 19.3 77 2.7 SSW 6 9 3 5 1014.8 1014.6 0.0
16/01:00am 23.5 25.6 19.3 77 2.7 SW 7 9 4 5 1014.9 1014.7 0.0
16/12:30am 23.8 26.0 19.1 75 3.0 SW 6 7 3 4 1014.8 1014.6 0.0
16/12:00am 24.2 27.2 19.2 73 3.2 N 2 7 1 4 1014.9 1014.7 0.0
 
Date/Time
CST
Temp
°C
App
Temp
°C
Dew
Point
°C
Rel
Hum
%
Delta-T
°C
Wind Press
QNH
hPa
Press
MSL
hPa
Rain since
9am
mm
Dir  Spd
km/h
Gust
km/h
Spd
kts
Gust
kts
15/11:30pm 24.5 27.0 19.0 71 3.5 NNE 4 11 2 6 1014.9 1014.7 0.0
15/11:00pm 24.8 24.1 18.7 69 3.9 N 20 26 11 14 1014.4 1014.2 0.0
15/10:30pm 25.0 24.1 18.2 66 4.3 N 20 26 11 14 1014.7 1014.5 0.0
15/10:00pm 25.5 24.4 17.7 62 4.9 NNE 20 28 11 15 1014.7 1014.5 0.0
15/09:30pm 25.5 23.8 18.2 64 4.6 NNE 24 30 13 16 1014.6 1014.4 0.0
15/09:00pm 25.4 24.1 17.2 60 5.1 NNE 20 24 11 13 1014.4 1014.2 0.0
15/08:30pm 25.4 23.8 16.5 58 5.5 NE 20 24 11 13 1014.3 1014.1 0.0
15/08:00pm 25.5 23.4 16.2 56 5.7 NE 22 30 12 16 1014.0 1013.8 0.0
15/07:30pm 25.7 23.6 16.3 56 5.8 NE 22 30 12 16 1013.6 1013.4 0.0
15/07:00pm 26.1 23.5 15.8 53 6.3 NE 24 33 13 18 1013.4 1013.2 0.0
15/06:30pm 26.7 23.0 15.1 49 7.0 NNE 28 35 15 19 1013.1 1012.9 0.0
15/06:00pm 27.4 23.0 14.2 44 7.9 NNE 30 39 16 21 1012.7 1012.5 0.0
15/05:30pm 28.2 24.6 14.2 42 8.4 NNE 26 35 14 19 1012.6 1012.4 0.0
15/05:00pm 28.7 24.4 14.3 41 8.7 NNE 30 39 16 21 1012.6 1012.4 0.0
15/04:30pm 28.4 24.4 14.1 41 8.6 NNE 28 37 15 20 1012.5 1012.3 0.0
15/04:00pm 29.5 25.0 13.8 38 9.4 N 30 39 16 21 1012.3 1012.1 0.0
15/03:30pm 30.3 25.5 13.0 34 10.3 N 30 39 16 21 1012.3 1012.1 0.0
15/03:00pm 31.6 27.9 10.3 27 12.2 NE 20 32 11 17 1012.3 1012.1 0.0
15/02:30pm 31.4 27.6 9.2 25 12.5 ENE 19 32 10 17 1012.6 1012.4 0.0
15/02:00pm 31.3 26.1 7.3 22 13.1 E 24 37 13 20 1012.9 1012.7 0.0
15/01:30pm 30.8 25.3 7.5 23 12.7 ESE 26 41 14 22 1013.3 1013.1 0.0
15/01:00pm 31.2 24.7 6.4 21 13.3 ENE 30 41 16 22 1013.8 1013.6 0.0
15/12:30pm 31.3 24.2 5.7 20 13.6 ESE 32 46 17 25 1014.1 1013.9 0.0
15/12:25pm 31.0 24.2 5.1 19 13.6 E 30 44 16 24 1014.2 1014.0 0.0
15/12:12pm 30.9 23.1 4.9 19 13.6 ESE 35 48 19 26 1014.4 1014.2 0.0
15/12:04pm 31.5 24.5 2.1 15 14.7 ESE 28 48 15 26 1014.4 1014.2 0.0
15/12:00pm 30.8 24.3 2.5 16 14.2 ESE 26 41 14 22 1014.5 1014.3 0.0
15/11:55am 30.4 23.3 3.5 18 13.7 E 30 48 16 26 1014.6 1014.4 0.0
15/11:30am 30.2 22.6 4.1 19 13.4 E 33 48 18 26 1015.1 1014.9 0.0
15/11:00am 30.0 22.8 6.0 22 12.7 E 33 46 18 25 1015.6 1015.4 0.0
15/10:30am 28.7 21.7 7.0 25 11.6 ESE 33 46 18 25 1016.1 1015.9 0.0
15/10:00am 28.2 21.4 7.0 26 11.3 E 32 43 17 23 1016.6 1016.4 0.0
15/09:30am 27.4 20.2 5.9 25 11.2 ESE 33 44 18 24 1016.9 1016.7 0.0
15/09:25am 27.3 20.8 6.3 26 11.0 ESE 30 44 16 24 1016.9 1016.7 0.0
15/09:00am 26.5 23.6 10.9 37 8.8 ESE 17 26 9 14 1017.1 1016.9 0.0
15/08:30am 24.3 25.1 18.1 68 3.9 SE 11 19 6 10 1017.0 1016.8 0.0
15/08:00am 22.8 24.3 19.0 79 2.4 SE 9 13 5 7 1016.9 1016.7 0.0
15/07:30am 21.8 23.6 18.8 83 1.9 SE 7 9 4 5 1016.6 1016.4 0.0
15/07:00am 20.9 22.6 18.5 86 1.5 SE 7 9 4 5 1016.5 1016.3 0.0
15/06:30am 19.9 21.5 17.8 88 1.3 SE 6 7 3 4 1016.2 1016.0 0.0
15/06:00am 20.2 21.8 17.8 86 1.5 SE 6 6 3 3 1015.9 1015.7 0.0
15/05:30am 20.8 22.4 17.9 83 1.8 ESE 6 7 3 4 1015.7 1015.5 0.0
15/05:00am 20.9 22.5 17.8 82 1.9 ESE 6 7 3 4 1015.7 1015.5 0.0
15/04:30am 21.2 22.5 17.5 79 2.3 ESE 7 9 4 5 1015.6 1015.4 0.0
15/04:00am 21.6 22.9 17.2 76 2.7 E 6 6 3 3 1015.5 1015.3 0.0
15/03:30am 22.2 23.9 17.2 73 3.1 SE 4 6 2 3 1015.2 1015.0 0.0
15/03:00am 22.7 24.3 17.0 70 3.5 ESE 4 7 2 4 1015.6 1015.4 0.0
15/02:30am 21.9 23.7 17.4 75 2.8 ESE 4 6 2 3 1015.5 1015.3 0.0
15/02:00am 23.0 24.5 17.5 71 3.4 SE 6 7 3 4 1015.5 1015.3 0.0
15/01:30am 23.3 24.7 17.8 71 3.4 ESE 7 9 4 5 1015.9 1015.7 0.0
15/01:00am 22.1 24.0 17.7 76 2.7 E 4 6 2 3 1015.9 1015.7 0.0
15/12:30am 22.4 24.2 17.4 73 3.1 E 4 7 2 4 1016.0 1015.8 0.0
15/12:00am 24.2 25.9 18.0 68 3.9 SW 6 6 3 3 1015.8 1015.6 0.0
 
Date/Time
CST
Temp
°C
App
Temp
°C
Dew
Point
°C
Rel
Hum
%
Delta-T
°C
Wind Press
QNH
hPa
Press
MSL
hPa
Rain since
9am
mm
Dir  Spd
km/h
Gust
km/h
Spd
kts
Gust
kts
14/11:30pm 24.3 27.1 17.9 67 4.0 CALM 0 4 0 2 1015.5 1015.3 0.0
14/11:00pm 24.3 25.7 17.9 67 4.0 N 7 11 4 6 1015.1 1014.9 0.0
14/10:30pm 24.6 25.2 17.7 65 4.3 N 11 13 6 7 1015.1 1014.9 0.0
14/10:00pm 25.1 26.5 17.8 64 4.6 N 7 11 4 6 1015.1 1014.9 0.0
14/09:30pm 25.0 25.4 17.3 62 4.8 NNE 11 15 6 8 1014.9 1014.7 0.0
14/09:00pm 25.4 25.6 16.8 59 5.3 NE 11 17 6 9 1014.7 1014.5 0.0
14/08:30pm 25.9 25.2 16.3 55 5.9 NE 15 20 8 11 1014.4 1014.2 0.0
14/08:00pm 26.4 24.9 15.2 50 6.8 NE 17 20 9 11 1014.2 1014.0 0.0
14/07:30pm 26.9 25.0 14.2 45 7.6 NNE 17 20 9 11 1013.8 1013.6 0.0
14/07:00pm 27.2 25.2 15.0 47 7.4 NNE 19 28 10 15 1013.5 1013.3 0.0
14/06:30pm 28.3 24.8 12.1 36 9.4 NNE 22 32 12 17 1013.3 1013.1 0.0
14/06:00pm 29.2 24.9 10.8 32 10.5 NNE 24 32 13 17 1013.1 1012.9 0.0
14/05:30pm 29.9 25.1 10.4 29 11.1 NNE 26 33 14 18 1012.9 1012.7 0.0
14/05:00pm 30.6 24.8 9.5 27 11.9 NNE 30 39 16 21 1012.7 1012.5 0.0
14/04:30pm 31.4 26.1 10.0 26 12.2 N 28 35 15 19 1012.6 1012.4 0.0
14/04:00pm 32.7 27.9 8.9 23 13.4 NE 24 35 13 19 1012.6 1012.4 0.0
14/03:30pm 32.3 28.1 8.2 22 13.4 NE 20 33 11 18 1012.7 1012.5 0.0
14/03:00pm 32.8 27.4 8.2 21 13.7 ENE 26 37 14 20 1012.9 1012.7 0.0
14/02:30pm 31.9 27.8 8.6 23 13.0 NE 20 32 11 17 1013.2 1013.0 0.0
14/02:00pm 32.3 27.0 6.7 20 13.9 E 24 37 13 20 1013.7 1013.5 0.0
14/01:30pm 31.6 24.9 5.6 19 13.8 ENE 30 43 16 23 1014.3 1014.1 0.0
14/01:00pm 31.6 25.1 4.9 18 14.0 E 28 50 15 27 1015.0 1014.8 0.0
14/12:54pm 31.9 25.5 5.2 18 14.1 E 28 50 15 27 1015.1 1014.9 0.0
14/12:30pm 30.9 24.4 4.5 19 13.7 E 28 44 15 24 1015.7 1015.5 0.0
14/12:20pm 31.3 23.5 5.0 19 13.8 E 35 54 19 29 1015.8 1015.6 0.0
14/12:00pm 31.0 23.8 5.0 19 13.6 E 32 44 17 24 1016.2 1016.0 0.0
14/11:30am 30.3 21.3 4.6 19 13.3 E 41 61 22 33 1016.7 1016.5 0.0
14/11:02am 30.0 20.9 5.7 21 12.8 E 43 61 23 33 1017.2 1017.0 0.0
14/11:00am 29.3 19.9 5.6 22 12.4 E 44 61 24 33 1017.2 1017.0 0.0
14/10:45am 29.6 20.3 5.2 21 12.7 E 43 61 23 33 1017.3 1017.1 0.0
14/10:30am 28.6 20.5 5.2 22 12.1 E 37 48 20 26 1017.6 1017.4 0.0
14/10:13am 28.9 20.3 6.4 24 11.9 E 41 59 22 32 1017.7 1017.5 0.0
14/10:00am 28.2 19.8 7.3 26 11.2 E 41 63 22 34 1017.8 1017.6 0.0
14/09:33am 27.3 21.3 8.8 31 10.1 E 30 48 16 26 1018.2 1018.0 0.0
14/09:30am 27.2 21.3 9.2 32 9.9 E 30 39 16 21 1018.2 1018.0 0.0
14/09:00am 26.2 21.2 9.4 34 9.2 E 26 39 14 21 1018.3 1018.1 0.0
14/08:30am 25.0 23.0 13.8 49 6.6 E 17 20 9 11 1018.4 1018.2 0.0
14/08:00am 24.0 25.0 17.7 68 3.9 E 9 13 5 7 1018.3 1018.1 0.0
14/07:30am 22.2 24.1 19.0 82 2.0 E 7 9 4 5 1018.0 1017.8 0.0
14/07:00am 20.1 21.6 18.0 88 1.3 E 7 9 4 5 1017.7 1017.5 0.0
14/06:30am 19.9 20.8 17.6 86 1.4 E 9 9 5 5 1017.4 1017.2 0.0
14/06:00am 19.2 20.2 16.9 86 1.4 E 7 7 4 4 1017.2 1017.0 0.0
14/05:30am 20.3 21.4 16.5 79 2.3 ESE 6 7 3 4 1016.8 1016.6 0.0
14/05:00am 19.7 20.6 16.0 79 2.2 E 6 7 3 4 1016.5 1016.3 0.0
14/04:30am 19.7 20.4 15.5 77 2.5 E 6 6 3 3 1016.3 1016.1 0.0
14/04:00am 19.6 20.0 14.8 74 2.8 E 6 6 3 3 1016.1 1015.9 0.0
14/03:30am 20.0 20.5 15.1 73 2.9 E 6 6 3 3 1016.0 1015.8 0.0
14/03:00am 19.6 19.8 14.8 74 2.8 E 7 7 4 4 1016.0 1015.8 0.0
14/02:30am 19.9 20.8 15.0 73 2.9 E 4 6 2 3 1015.9 1015.7 0.0
14/02:00am 20.8 22.0 15.0 69 3.4 E 2 4 1 2 1016.2 1016.0 0.0
14/01:30am 21.1 21.9 14.8 67 3.7 ENE 4 6 2 3 1016.5 1016.3 0.0
14/01:00am 22.0 22.4 14.7 63 4.3 ENE 6 7 3 4 1016.7 1016.5 0.0
14/12:30am 22.1 22.8 16.0 68 3.7 ESE 7 9 4 5 1016.8 1016.6 0.0
14/12:00am 22.1 23.1 15.4 65 4.0 SE 4 6 2 3 1016.7 1016.5 0.0
 
Date/Time
CST
Temp
°C
App
Temp
°C
Dew
Point
°C
Rel
Hum
%
Delta-T
°C
Wind Press
QNH
hPa
Press
MSL
hPa
Rain since
9am
mm
Dir  Spd
km/h
Gust
km/h
Spd
kts
Gust
kts
13/11:30pm 23.0 23.3 15.9 64 4.3 SSE 9 11 5 6 1016.5 1016.3 0.0
13/11:00pm 24.1 23.9 15.8 59 5.0 S 11 17 6 9 1016.3 1016.1 0.0
13/10:30pm 24.4 24.5 16.6 61 4.8 S 11 15 6 8 1016.1 1015.9 0.0
13/10:00pm 24.6 24.6 14.3 52 6.1 SSE 7 9 4 5 1015.8 1015.6 0.0
13/09:30pm 23.8 24.2 14.7 56 5.4 NE 6 9 3 5 1015.4 1015.2 0.0
13/09:00pm 24.1 24.1 14.3 54 5.8 N 7 9 4 5 1015.2 1015.0 0.0
13/08:30pm 24.5 24.3 13.1 49 6.6 NNE 6 7 3 4 1014.9 1014.7 0.0
13/08:00pm 25.5 24.9 13.6 47 7.0 NNE 9 11 5 6 1014.7 1014.5 0.0
13/07:30pm 26.2 26.2 15.3 51 6.6 N 9 11 5 6 1014.3 1014.1 0.0
13/07:00pm 27.3 26.5 12.8 40 8.5 N 9 11 5 6 1014.1 1013.9 0.0
13/06:30pm 28.0 25.7 11.9 36 9.3 N 15 19 8 10 1013.7 1013.5 0.0
13/06:00pm 29.1 25.8 9.4 29 11.0 N 17 22 9 12 1013.5 1013.3 0.0
13/05:30pm 29.5 25.1 9.0 27 11.4 N 22 30 12 16 1013.4 1013.2 0.0
13/05:00pm 30.3 24.9 7.8 24 12.3 N 26 32 14 17 1013.4 1013.2 0.0
13/04:30pm 30.6 26.2 7.5 23 12.6 N 20 30 11 16 1013.3 1013.1 0.0
13/04:00pm 30.5 25.3 7.3 23 12.6 N 24 32 13 17 1013.5 1013.3 0.0
13/03:30pm 31.7 25.8 7.4 22 13.3 NNE 28 41 15 22 1013.7 1013.5 0.0
13/03:00pm 32.0 27.3 3.3 16 14.7 N 17 28 9 15 1014.1 1013.9 0.0
13/02:30pm 31.3 26.4 4.3 18 14.0 ENE 19 32 10 17 1014.5 1014.3 0.0
13/02:00pm 31.1 25.8 1.6 15 14.6 NNE 19 32 10 17 1015.1 1014.9 0.0
13/01:30pm 31.5 24.6 -10.0 6 16.9 NE 20 32 11 17 1015.6 1015.4 0.0
13/01:00pm 31.2 22.8 -9.8 6 16.7 ENE 28 39 15 21 1016.0 1015.8 0.0
13/12:30pm 30.7 22.6 -0.3 13 14.8 E 32 44 17 24 1016.4 1016.2 0.0
13/12:00pm 30.3 22.9 1.7 16 14.1 ESE 30 41 16 22 1017.0 1016.8 0.0
13/11:30am 30.3 22.7 2.8 17 13.8 ESE 32 43 17 23 1017.6 1017.4 0.0
13/11:13am 29.4 22.0 1.9 17 13.5 ESE 30 54 16 29 1017.7 1017.5 0.0
13/11:00am 29.0 21.5 1.0 16 13.5 ESE 30 44 16 24 1017.9 1017.7 0.0
13/10:30am 28.9 21.1 4.8 21 12.4 E 35 46 19 25 1018.2 1018.0 0.0
13/10:00am 27.9 21.6 5.5 24 11.6 E 28 46 15 25 1018.4 1018.2 0.0
13/09:56am 27.8 21.5 5.9 25 11.4 E 28 46 15 25 1018.5 1018.3 0.0

Other formats

Comma delimited format used in spreadsheet applications
http://www.bom.gov.au/fwo/IDD60801/IDD60801.94120.axf

JavaScript Object Notation format (JSON) in row-major order
http://www.bom.gov.au/fwo/IDD60801/IDD60801.94120.json

Data quality

Most of these data are generated automatically and are frequently updated. Quality checks on data are not normally performed. It is possible for incorrect values to appear. Refer to information at About Latest Weather Observations and please check the disclaimer before using these data.